sensor_id;sensor_type;location;lat;lon;timestamp;P1;durP1;ratioP1;P2;durP2;ratioP2
3949;SDS011;53057;50.988;6.314;2023-05-07T00:00:54;43.00;;;26.70;;
3949;SDS011;53057;50.988;6.314;2023-05-07T00:03:21;37.90;;;26.40;;
3949;SDS011;53057;50.988;6.314;2023-05-07T00:05:48;43.53;;;26.63;;
3949;SDS011;53057;50.988;6.314;2023-05-07T00:08:15;43.70;;;28.40;;
3949;SDS011;53057;50.988;6.314;2023-05-07T00:10:42;46.33;;;27.47;;
3949;SDS011;53057;50.988;6.314;2023-05-07T00:13:08;42.23;;;27.00;;
3949;SDS011;53057;50.988;6.314;2023-05-07T00:15:35;46.10;;;29.00;;
3949;SDS011;53057;50.988;6.314;2023-05-07T00:18:02;47.27;;;28.30;;
3949;SDS011;53057;50.988;6.314;2023-05-07T00:20:28;43.40;;;28.93;;
3949;SDS011;53057;50.988;6.314;2023-05-07T00:22:55;49.17;;;28.43;;
3949;SDS011;53057;50.988;6.314;2023-05-07T00:25:21;49.20;;;29.83;;
3949;SDS011;53057;50.988;6.314;2023-05-07T00:27:48;47.67;;;27.33;;
3949;SDS011;53057;50.988;6.314;2023-05-07T00:30:15;50.57;;;27.80;;
3949;SDS011;53057;50.988;6.314;2023-05-07T00:32:41;53.50;;;29.17;;
3949;SDS011;53057;50.988;6.314;2023-05-07T00:35:08;44.60;;;28.37;;
3949;SDS011;53057;50.988;6.314;2023-05-07T00:37:35;44.13;;;28.43;;
3949;SDS011;53057;50.988;6.314;2023-05-07T00:40:02;47.93;;;27.73;;
3949;SDS011;53057;50.988;6.314;2023-05-07T00:42:30;44.00;;;29.40;;
3949;SDS011;53057;50.988;6.314;2023-05-07T00:44:58;493.43;;;101.33;;
3949;SDS011;53057;50.988;6.314;2023-05-07T00:47:25;48.20;;;29.60;;
3949;SDS011;53057;50.988;6.314;2023-05-07T00:49:52;22.37;;;13.37;;
3949;SDS011;53057;50.988;6.314;2023-05-07T00:52:19;45.63;;;25.70;;
3949;SDS011;53057;50.988;6.314;2023-05-07T00:54:46;42.37;;;26.10;;
3949;SDS011;53057;50.988;6.314;2023-05-07T00:57:13;49.70;;;28.47;;
3949;SDS011;53057;50.988;6.314;2023-05-07T00:59:41;46.83;;;27.30;;
3949;SDS011;53057;50.988;6.314;2023-05-07T01:02:08;44.03;;;28.83;;
3949;SDS011;53057;50.988;6.314;2023-05-07T01:04:34;51.93;;;27.33;;
3949;SDS011;53057;50.988;6.314;2023-05-07T01:07:01;40.60;;;26.13;;
3949;SDS011;53057;50.988;6.314;2023-05-07T01:09:29;45.03;;;25.40;;
3949;SDS011;53057;50.988;6.314;2023-05-07T01:11:56;41.10;;;25.87;;
3949;SDS011;53057;50.988;6.314;2023-05-07T01:14:23;48.10;;;27.40;;
3949;SDS011;53057;50.988;6.314;2023-05-07T01:16:50;43.73;;;27.70;;
3949;SDS011;53057;50.988;6.314;2023-05-07T01:19:22;40.10;;;25.20;;
3949;SDS011;53057;50.988;6.314;2023-05-07T01:21:49;44.27;;;26.00;;
3949;SDS011;53057;50.988;6.314;2023-05-07T01:24:18;50.70;;;27.33;;
3949;SDS011;53057;50.988;6.314;2023-05-07T01:26:45;40.53;;;26.13;;
3949;SDS011;53057;50.988;6.314;2023-05-07T01:29:14;44.93;;;26.13;;
3949;SDS011;53057;50.988;6.314;2023-05-07T01:31:41;45.50;;;28.70;;
3949;SDS011;53057;50.988;6.314;2023-05-07T01:34:08;45.27;;;25.90;;
3949;SDS011;53057;50.988;6.314;2023-05-07T01:36:36;46.77;;;28.60;;
3949;SDS011;53057;50.988;6.314;2023-05-07T01:39:03;49.10;;;28.97;;
3949;SDS011;53057;50.988;6.314;2023-05-07T01:41:30;46.47;;;29.90;;
3949;SDS011;53057;50.988;6.314;2023-05-07T01:43:57;50.43;;;31.43;;
3949;SDS011;53057;50.988;6.314;2023-05-07T01:46:24;58.60;;;31.57;;
3949;SDS011;53057;50.988;6.314;2023-05-07T01:48:52;56.53;;;33.80;;
3949;SDS011;53057;50.988;6.314;2023-05-07T01:51:20;60.13;;;32.17;;
3949;SDS011;53057;50.988;6.314;2023-05-07T01:53:48;51.27;;;32.53;;
3949;SDS011;53057;50.988;6.314;2023-05-07T01:56:18;51.90;;;32.40;;
3949;SDS011;53057;50.988;6.314;2023-05-07T01:58:45;54.33;;;32.80;;
3949;SDS011;53057;50.988;6.314;2023-05-07T02:01:13;61.10;;;33.27;;
3949;SDS011;53057;50.988;6.314;2023-05-07T02:03:40;56.50;;;33.23;;
3949;SDS011;53057;50.988;6.314;2023-05-07T02:06:17;49.33;;;30.57;;
3949;SDS011;53057;50.988;6.314;2023-05-07T02:08:43;55.03;;;33.37;;
3949;SDS011;53057;50.988;6.314;2023-05-07T02:11:11;52.03;;;30.83;;
3949;SDS011;53057;50.988;6.314;2023-05-07T02:13:37;53.57;;;31.70;;
3949;SDS011;53057;50.988;6.314;2023-05-07T02:16:04;48.23;;;29.77;;
3949;SDS011;53057;50.988;6.314;2023-05-07T02:18:32;45.07;;;28.70;;
3949;SDS011;53057;50.988;6.314;2023-05-07T02:20:58;43.60;;;28.33;;
3949;SDS011;53057;50.988;6.314;2023-05-07T02:23:25;45.67;;;28.93;;
3949;SDS011;53057;50.988;6.314;2023-05-07T02:25:52;48.30;;;27.03;;
3949;SDS011;53057;50.988;6.314;2023-05-07T02:28:19;49.47;;;28.13;;
3949;SDS011;53057;50.988;6.314;2023-05-07T02:30:52;42.47;;;26.20;;
3949;SDS011;53057;50.988;6.314;2023-05-07T02:33:19;42.37;;;27.30;;
3949;SDS011;53057;50.988;6.314;2023-05-07T02:35:47;41.77;;;24.40;;
3949;SDS011;53057;50.988;6.314;2023-05-07T02:38:14;40.47;;;23.87;;
3949;SDS011;53057;50.988;6.314;2023-05-07T02:40:42;37.43;;;23.70;;
3949;SDS011;53057;50.988;6.314;2023-05-07T02:43:09;42.20;;;23.77;;
3949;SDS011;53057;50.988;6.314;2023-05-07T02:45:37;52.37;;;25.67;;
3949;SDS011;53057;50.988;6.314;2023-05-07T02:48:06;41.50;;;24.83;;
3949;SDS011;53057;50.988;6.314;2023-05-07T02:50:33;46.13;;;27.00;;
3949;SDS011;53057;50.988;6.314;2023-05-07T02:52:59;39.57;;;24.60;;
3949;SDS011;53057;50.988;6.314;2023-05-07T02:55:27;52.00;;;28.73;;
3949;SDS011;53057;50.988;6.314;2023-05-07T02:57:53;53.20;;;28.03;;
3949;SDS011;53057;50.988;6.314;2023-05-07T03:00:20;49.07;;;27.23;;
3949;SDS011;53057;50.988;6.314;2023-05-07T03:03:07;56.87;;;29.70;;
3949;SDS011;53057;50.988;6.314;2023-05-07T03:05:34;51.63;;;28.80;;
3949;SDS011;53057;50.988;6.314;2023-05-07T03:08:00;56.37;;;29.33;;
3949;SDS011;53057;50.988;6.314;2023-05-07T03:10:27;52.93;;;29.20;;
3949;SDS011;53057;50.988;6.314;2023-05-07T03:12:54;60.63;;;30.37;;
3949;SDS011;53057;50.988;6.314;2023-05-07T03:15:21;55.87;;;28.80;;
3949;SDS011;53057;50.988;6.314;2023-05-07T03:17:48;67.87;;;30.17;;
3949;SDS011;53057;50.988;6.314;2023-05-07T03:20:14;56.87;;;32.10;;
3949;SDS011;53057;50.988;6.314;2023-05-07T03:22:42;59.63;;;30.30;;
3949;SDS011;53057;50.988;6.314;2023-05-07T03:25:09;67.50;;;31.97;;
3949;SDS011;53057;50.988;6.314;2023-05-07T03:27:35;75.70;;;33.00;;
3949;SDS011;53057;50.988;6.314;2023-05-07T03:30:02;63.70;;;31.77;;
3949;SDS011;53057;50.988;6.314;2023-05-07T03:32:29;71.63;;;32.50;;
3949;SDS011;53057;50.988;6.314;2023-05-07T03:34:56;67.27;;;33.33;;
3949;SDS011;53057;50.988;6.314;2023-05-07T03:37:23;66.43;;;33.00;;
3949;SDS011;53057;50.988;6.314;2023-05-07T03:39:49;68.77;;;33.10;;
3949;SDS011;53057;50.988;6.314;2023-05-07T03:42:17;75.73;;;33.03;;
3949;SDS011;53057;50.988;6.314;2023-05-07T03:44:46;61.83;;;31.40;;
3949;SDS011;53057;50.988;6.314;2023-05-07T03:47:13;65.57;;;30.23;;
3949;SDS011;53057;50.988;6.314;2023-05-07T03:49:40;62.17;;;29.60;;
3949;SDS011;53057;50.988;6.314;2023-05-07T03:52:06;49.50;;;28.43;;
3949;SDS011;53057;50.988;6.314;2023-05-07T03:54:33;54.83;;;30.17;;
3949;SDS011;53057;50.988;6.314;2023-05-07T03:57:00;65.37;;;31.97;;
3949;SDS011;53057;50.988;6.314;2023-05-07T03:59:26;73.67;;;32.30;;
3949;SDS011;53057;50.988;6.314;2023-05-07T04:01:53;66.27;;;30.37;;
3949;SDS011;53057;50.988;6.314;2023-05-07T04:04:22;56.40;;;28.67;;
3949;SDS011;53057;50.988;6.314;2023-05-07T04:06:49;57.27;;;28.60;;
3949;SDS011;53057;50.988;6.314;2023-05-07T04:09:16;59.77;;;28.87;;
3949;SDS011;53057;50.988;6.314;2023-05-07T04:11:43;59.67;;;27.90;;
3949;SDS011;53057;50.988;6.314;2023-05-07T04:14:10;60.57;;;29.90;;
3949;SDS011;53057;50.988;6.314;2023-05-07T04:16:37;70.73;;;31.33;;
3949;SDS011;53057;50.988;6.314;2023-05-07T04:19:05;58.80;;;28.87;;
3949;SDS011;53057;50.988;6.314;2023-05-07T04:21:32;59.67;;;29.83;;
3949;SDS011;53057;50.988;6.314;2023-05-07T04:23:58;55.73;;;28.77;;
3949;SDS011;53057;50.988;6.314;2023-05-07T04:26:25;51.93;;;28.00;;
3949;SDS011;53057;50.988;6.314;2023-05-07T04:28:52;62.27;;;31.67;;
3949;SDS011;53057;50.988;6.314;2023-05-07T04:31:18;61.97;;;29.00;;
3949;SDS011;53057;50.988;6.314;2023-05-07T04:33:49;56.27;;;27.97;;
3949;SDS011;53057;50.988;6.314;2023-05-07T04:36:17;59.33;;;26.50;;
3949;SDS011;53057;50.988;6.314;2023-05-07T04:38:51;52.93;;;26.50;;
3949;SDS011;53057;50.988;6.314;2023-05-07T04:41:19;57.90;;;29.00;;
3949;SDS011;53057;50.988;6.314;2023-05-07T04:43:45;61.10;;;26.70;;
3949;SDS011;53057;50.988;6.314;2023-05-07T04:46:14;57.23;;;27.33;;
3949;SDS011;53057;50.988;6.314;2023-05-07T04:48:42;57.13;;;25.10;;
3949;SDS011;53057;50.988;6.314;2023-05-07T04:51:08;51.20;;;25.77;;
3949;SDS011;53057;50.988;6.314;2023-05-07T04:53:35;51.03;;;24.83;;
3949;SDS011;53057;50.988;6.314;2023-05-07T04:56:01;48.70;;;24.87;;
3949;SDS011;53057;50.988;6.314;2023-05-07T04:58:39;58.87;;;27.70;;
3949;SDS011;53057;50.988;6.314;2023-05-07T05:01:06;49.63;;;23.47;;
3949;SDS011;53057;50.988;6.314;2023-05-07T05:03:33;52.47;;;24.97;;
3949;SDS011;53057;50.988;6.314;2023-05-07T05:06:00;42.90;;;22.40;;
3949;SDS011;53057;50.988;6.314;2023-05-07T05:08:31;54.43;;;26.17;;
3949;SDS011;53057;50.988;6.314;2023-05-07T05:11:00;50.57;;;26.50;;
3949;SDS011;53057;50.988;6.314;2023-05-07T05:13:26;54.87;;;26.73;;
3949;SDS011;53057;50.988;6.314;2023-05-07T05:15:53;48.67;;;25.83;;
3949;SDS011;53057;50.988;6.314;2023-05-07T05:18:20;53.67;;;26.30;;
3949;SDS011;53057;50.988;6.314;2023-05-07T05:20:47;56.50;;;25.93;;
3949;SDS011;53057;50.988;6.314;2023-05-07T05:23:14;56.50;;;25.57;;
3949;SDS011;53057;50.988;6.314;2023-05-07T05:25:41;44.40;;;24.60;;
3949;SDS011;53057;50.988;6.314;2023-05-07T05:28:10;48.60;;;24.70;;
3949;SDS011;53057;50.988;6.314;2023-05-07T05:30:37;49.93;;;22.87;;
3949;SDS011;53057;50.988;6.314;2023-05-07T05:33:03;43.70;;;24.53;;
3949;SDS011;53057;50.988;6.314;2023-05-07T05:35:30;47.53;;;23.53;;
3949;SDS011;53057;50.988;6.314;2023-05-07T05:38:01;45.20;;;24.00;;
3949;SDS011;53057;50.988;6.314;2023-05-07T05:40:28;38.27;;;21.77;;
3949;SDS011;53057;50.988;6.314;2023-05-07T05:42:55;44.83;;;24.40;;
3949;SDS011;53057;50.988;6.314;2023-05-07T05:45:22;32.60;;;19.30;;
3949;SDS011;53057;50.988;6.314;2023-05-07T05:47:49;28.27;;;17.83;;
3949;SDS011;53057;50.988;6.314;2023-05-07T05:50:17;33.97;;;18.03;;
3949;SDS011;53057;50.988;6.314;2023-05-07T05:52:43;23.53;;;16.30;;
3949;SDS011;53057;50.988;6.314;2023-05-07T05:55:11;20.57;;;14.60;;
3949;SDS011;53057;50.988;6.314;2023-05-07T05:57:37;19.93;;;12.80;;
3949;SDS011;53057;50.988;6.314;2023-05-07T06:00:04;23.83;;;12.60;;
3949;SDS011;53057;50.988;6.314;2023-05-07T06:02:32;16.73;;;10.43;;
3949;SDS011;53057;50.988;6.314;2023-05-07T06:04:59;14.57;;;10.10;;
3949;SDS011;53057;50.988;6.314;2023-05-07T06:07:26;20.50;;;12.03;;
3949;SDS011;53057;50.988;6.314;2023-05-07T06:09:53;19.13;;;11.83;;
3949;SDS011;53057;50.988;6.314;2023-05-07T06:12:20;19.30;;;12.13;;
3949;SDS011;53057;50.988;6.314;2023-05-07T06:14:47;13.20;;;10.27;;
3949;SDS011;53057;50.988;6.314;2023-05-07T06:17:15;17.27;;;10.60;;
3949;SDS011;53057;50.988;6.314;2023-05-07T06:19:44;18.60;;;10.33;;
3949;SDS011;53057;50.988;6.314;2023-05-07T06:22:12;19.97;;;11.10;;
3949;SDS011;53057;50.988;6.314;2023-05-07T06:24:39;12.73;;;9.23;;
3949;SDS011;53057;50.988;6.314;2023-05-07T06:27:07;15.50;;;8.90;;
3949;SDS011;53057;50.988;6.314;2023-05-07T06:29:34;13.30;;;8.73;;
3949;SDS011;53057;50.988;6.314;2023-05-07T06:32:08;12.23;;;8.50;;
3949;SDS011;53057;50.988;6.314;2023-05-07T06:34:35;18.60;;;10.83;;
3949;SDS011;53057;50.988;6.314;2023-05-07T06:37:02;16.33;;;10.30;;
3949;SDS011;53057;50.988;6.314;2023-05-07T06:39:46;13.73;;;9.60;;
3949;SDS011;53057;50.988;6.314;2023-05-07T06:42:12;18.27;;;10.10;;
3949;SDS011;53057;50.988;6.314;2023-05-07T06:44:41;20.07;;;10.97;;
3949;SDS011;53057;50.988;6.314;2023-05-07T06:47:11;14.60;;;10.30;;
3949;SDS011;53057;50.988;6.314;2023-05-07T06:49:41;10.43;;;7.10;;
3949;SDS011;53057;50.988;6.314;2023-05-07T06:52:08;15.60;;;8.40;;
3949;SDS011;53057;50.988;6.314;2023-05-07T06:54:34;11.47;;;8.67;;
3949;SDS011;53057;50.988;6.314;2023-05-07T06:57:02;12.93;;;7.57;;
3949;SDS011;53057;50.988;6.314;2023-05-07T06:59:29;12.07;;;7.80;;
3949;SDS011;53057;50.988;6.314;2023-05-07T07:01:56;9.30;;;7.60;;
3949;SDS011;53057;50.988;6.314;2023-05-07T07:04:23;10.90;;;8.17;;
3949;SDS011;53057;50.988;6.314;2023-05-07T07:06:58;11.17;;;8.40;;
3949;SDS011;53057;50.988;6.314;2023-05-07T07:09:25;11.50;;;7.20;;
3949;SDS011;53057;50.988;6.314;2023-05-07T07:11:53;10.93;;;6.87;;
3949;SDS011;53057;50.988;6.314;2023-05-07T07:14:20;9.93;;;6.20;;
3949;SDS011;53057;50.988;6.314;2023-05-07T07:16:49;11.03;;;6.77;;
3949;SDS011;53057;50.988;6.314;2023-05-07T07:19:18;7.10;;;5.20;;
3949;SDS011;53057;50.988;6.314;2023-05-07T07:21:48;7.40;;;5.87;;
3949;SDS011;53057;50.988;6.314;2023-05-07T07:24:16;10.40;;;6.57;;
3949;SDS011;53057;50.988;6.314;2023-05-07T07:26:47;8.57;;;6.60;;
3949;SDS011;53057;50.988;6.314;2023-05-07T07:29:14;9.20;;;6.30;;
3949;SDS011;53057;50.988;6.314;2023-05-07T07:31:42;7.50;;;5.53;;
3949;SDS011;53057;50.988;6.314;2023-05-07T07:34:09;10.87;;;7.00;;
3949;SDS011;53057;50.988;6.314;2023-05-07T07:36:36;7.70;;;5.67;;
3949;SDS011;53057;50.988;6.314;2023-05-07T07:39:13;7.73;;;5.53;;
3949;SDS011;53057;50.988;6.314;2023-05-07T07:41:40;11.30;;;7.60;;
3949;SDS011;53057;50.988;6.314;2023-05-07T07:44:07;9.93;;;6.50;;
3949;SDS011;53057;50.988;6.314;2023-05-07T07:46:36;12.60;;;7.53;;
3949;SDS011;53057;50.988;6.314;2023-05-07T07:49:03;10.63;;;6.13;;
3949;SDS011;53057;50.988;6.314;2023-05-07T07:51:30;12.37;;;7.03;;
3949;SDS011;53057;50.988;6.314;2023-05-07T07:53:58;8.60;;;6.10;;
3949;SDS011;53057;50.988;6.314;2023-05-07T07:56:25;8.50;;;6.17;;
3949;SDS011;53057;50.988;6.314;2023-05-07T07:58:52;8.80;;;6.70;;
3949;SDS011;53057;50.988;6.314;2023-05-07T08:01:19;6.80;;;5.60;;
3949;SDS011;53057;50.988;6.314;2023-05-07T08:03:46;8.43;;;5.13;;
3949;SDS011;53057;50.988;6.314;2023-05-07T08:06:13;7.10;;;5.53;;
3949;SDS011;53057;50.988;6.314;2023-05-07T08:08:41;6.30;;;4.63;;
3949;SDS011;53057;50.988;6.314;2023-05-07T08:11:08;5.53;;;4.97;;
3949;SDS011;53057;50.988;6.314;2023-05-07T08:13:35;9.63;;;5.30;;
3949;SDS011;53057;50.988;6.314;2023-05-07T08:16:02;4.57;;;3.43;;
3949;SDS011;53057;50.988;6.314;2023-05-07T08:18:29;5.23;;;3.97;;
3949;SDS011;53057;50.988;6.314;2023-05-07T08:21:00;7.77;;;5.60;;
3949;SDS011;53057;50.988;6.314;2023-05-07T08:23:27;5.47;;;3.53;;
3949;SDS011;53057;50.988;6.314;2023-05-07T08:25:55;3.80;;;3.27;;
3949;SDS011;53057;50.988;6.314;2023-05-07T08:28:22;7.40;;;4.60;;
3949;SDS011;53057;50.988;6.314;2023-05-07T08:30:51;7.67;;;4.33;;
3949;SDS011;53057;50.988;6.314;2023-05-07T08:33:18;6.03;;;4.67;;
3949;SDS011;53057;50.988;6.314;2023-05-07T08:35:44;8.50;;;5.00;;
3949;SDS011;53057;50.988;6.314;2023-05-07T08:38:13;9.83;;;3.70;;
3949;SDS011;53057;50.988;6.314;2023-05-07T08:40:40;6.67;;;4.03;;
3949;SDS011;53057;50.988;6.314;2023-05-07T08:43:15;5.50;;;4.07;;
3949;SDS011;53057;50.988;6.314;2023-05-07T08:45:43;5.03;;;3.37;;
3949;SDS011;53057;50.988;6.314;2023-05-07T08:48:16;5.00;;;3.67;;
3949;SDS011;53057;50.988;6.314;2023-05-07T08:50:50;3.67;;;3.30;;
3949;SDS011;53057;50.988;6.314;2023-05-07T08:53:17;7.60;;;4.50;;
3949;SDS011;53057;50.988;6.314;2023-05-07T08:55:44;5.50;;;4.63;;
3949;SDS011;53057;50.988;6.314;2023-05-07T08:58:11;6.40;;;5.30;;
3949;SDS011;53057;50.988;6.314;2023-05-07T09:00:39;9.43;;;6.03;;
3949;SDS011;53057;50.988;6.314;2023-05-07T09:03:06;6.03;;;5.03;;
3949;SDS011;53057;50.988;6.314;2023-05-07T09:05:35;11.03;;;5.80;;
3949;SDS011;53057;50.988;6.314;2023-05-07T09:08:05;4.23;;;3.50;;
3949;SDS011;53057;50.988;6.314;2023-05-07T09:10:33;4.30;;;3.90;;
3949;SDS011;53057;50.988;6.314;2023-05-07T09:13:02;4.77;;;3.90;;
3949;SDS011;53057;50.988;6.314;2023-05-07T09:15:29;5.93;;;4.27;;
3949;SDS011;53057;50.988;6.314;2023-05-07T09:17:59;4.63;;;3.60;;
3949;SDS011;53057;50.988;6.314;2023-05-07T09:20:29;6.87;;;4.50;;
3949;SDS011;53057;50.988;6.314;2023-05-07T09:22:57;5.97;;;4.23;;
3949;SDS011;53057;50.988;6.314;2023-05-07T09:25:31;3.73;;;3.20;;
3949;SDS011;53057;50.988;6.314;2023-05-07T09:28:04;4.63;;;4.00;;
3949;SDS011;53057;50.988;6.314;2023-05-07T09:30:31;3.50;;;3.20;;
3949;SDS011;53057;50.988;6.314;2023-05-07T09:33:00;4.13;;;3.70;;
3949;SDS011;53057;50.988;6.314;2023-05-07T09:35:27;4.50;;;3.90;;
3949;SDS011;53057;50.988;6.314;2023-05-07T09:37:59;3.23;;;2.90;;
3949;SDS011;53057;50.988;6.314;2023-05-07T09:40:31;8.80;;;3.90;;
3949;SDS011;53057;50.988;6.314;2023-05-07T09:43:09;8.03;;;4.30;;
3949;SDS011;53057;50.988;6.314;2023-05-07T09:45:41;3.47;;;3.17;;
3949;SDS011;53057;50.988;6.314;2023-05-07T09:48:08;8.60;;;3.37;;
3949;SDS011;53057;50.988;6.314;2023-05-07T09:50:45;4.90;;;2.77;;
3949;SDS011;53057;50.988;6.314;2023-05-07T09:53:17;3.07;;;2.77;;
3949;SDS011;53057;50.988;6.314;2023-05-07T09:55:44;4.53;;;3.50;;
3949;SDS011;53057;50.988;6.314;2023-05-07T09:58:12;3.90;;;3.33;;
3949;SDS011;53057;50.988;6.314;2023-05-07T10:00:39;4.47;;;3.13;;
3949;SDS011;53057;50.988;6.314;2023-05-07T10:03:10;4.40;;;3.20;;
3949;SDS011;53057;50.988;6.314;2023-05-07T10:05:58;3.33;;;2.73;;
3949;SDS011;53057;50.988;6.314;2023-05-07T10:08:26;6.90;;;3.10;;
3949;SDS011;53057;50.988;6.314;2023-05-07T10:10:56;2.50;;;2.30;;
3949;SDS011;53057;50.988;6.314;2023-05-07T10:13:25;5.67;;;2.23;;
3949;SDS011;53057;50.988;6.314;2023-05-07T10:15:55;3.67;;;1.73;;
3949;SDS011;53057;50.988;6.314;2023-05-07T10:18:24;1.53;;;1.30;;
3949;SDS011;53057;50.988;6.314;2023-05-07T10:21:02;1.33;;;1.10;;
3949;SDS011;53057;50.988;6.314;2023-05-07T10:23:30;2.50;;;1.30;;
3949;SDS011;53057;50.988;6.314;2023-05-07T10:26:00;1.60;;;1.50;;
3949;SDS011;53057;50.988;6.314;2023-05-07T10:28:30;3.17;;;1.40;;
3949;SDS011;53057;50.988;6.314;2023-05-07T10:31:01;3.67;;;1.90;;
3949;SDS011;53057;50.988;6.314;2023-05-07T10:33:37;1.50;;;1.40;;
3949;SDS011;53057;50.988;6.314;2023-05-07T10:36:04;3.97;;;1.60;;
3949;SDS011;53057;50.988;6.314;2023-05-07T10:38:32;2.20;;;1.80;;
3949;SDS011;53057;50.988;6.314;2023-05-07T10:41:00;3.90;;;2.10;;
3949;SDS011;53057;50.988;6.314;2023-05-07T10:43:39;2.03;;;1.90;;
3949;SDS011;53057;50.988;6.314;2023-05-07T10:46:15;3.23;;;1.27;;
3949;SDS011;53057;50.988;6.314;2023-05-07T10:51:34;1.10;;;1.00;;
3949;SDS011;53057;50.988;6.314;2023-05-07T10:56:46;2.10;;;1.00;;
3949;SDS011;53057;50.988;6.314;2023-05-07T11:02:03;5.33;;;1.60;;
3949;SDS011;53057;50.988;6.314;2023-05-07T11:04:37;2.60;;;1.20;;
3949;SDS011;53057;50.988;6.314;2023-05-07T11:07:25;0.97;;;0.87;;
3949;SDS011;53057;50.988;6.314;2023-05-07T11:09:56;1.73;;;1.20;;
3949;SDS011;53057;50.988;6.314;2023-05-07T11:15:04;1.30;;;1.20;;
3949;SDS011;53057;50.988;6.314;2023-05-07T11:17:34;1.40;;;1.30;;
3949;SDS011;53057;50.988;6.314;2023-05-07T11:20:18;2.40;;;1.80;;
3949;SDS011;53057;50.988;6.314;2023-05-07T11:22:51;2.67;;;1.80;;
3949;SDS011;53057;50.988;6.314;2023-05-07T11:25:37;2.70;;;1.63;;
3949;SDS011;53057;50.988;6.314;2023-05-07T11:28:14;1.87;;;1.57;;
3949;SDS011;53057;50.988;6.314;2023-05-07T11:30:52;1.87;;;1.30;;
3949;SDS011;53057;50.988;6.314;2023-05-07T11:33:21;4.53;;;1.80;;
3949;SDS011;53057;50.988;6.314;2023-05-07T11:35:53;3.23;;;2.00;;
3949;SDS011;53057;50.988;6.314;2023-05-07T11:38:23;1.40;;;1.30;;
3949;SDS011;53057;50.988;6.314;2023-05-07T11:40:55;1.83;;;1.43;;
3949;SDS011;53057;50.988;6.314;2023-05-07T11:43:22;4.03;;;1.67;;
3949;SDS011;53057;50.988;6.314;2023-05-07T11:45:49;2.70;;;2.30;;
3949;SDS011;53057;50.988;6.314;2023-05-07T11:48:16;9.33;;;2.63;;
3949;SDS011;53057;50.988;6.314;2023-05-07T11:50:52;2.27;;;1.70;;
3949;SDS011;53057;50.988;6.314;2023-05-07T11:53:20;2.27;;;1.87;;
3949;SDS011;53057;50.988;6.314;2023-05-07T11:55:46;2.53;;;2.20;;
3949;SDS011;53057;50.988;6.314;2023-05-07T11:58:18;2.60;;;1.70;;
3949;SDS011;53057;50.988;6.314;2023-05-07T12:00:50;3.70;;;2.47;;
3949;SDS011;53057;50.988;6.314;2023-05-07T12:03:16;5.77;;;2.13;;
3949;SDS011;53057;50.988;6.314;2023-05-07T12:05:44;2.67;;;1.80;;
3949;SDS011;53057;50.988;6.314;2023-05-07T12:08:15;4.13;;;2.40;;
3949;SDS011;53057;50.988;6.314;2023-05-07T12:10:42;4.83;;;2.10;;
3949;SDS011;53057;50.988;6.314;2023-05-07T12:13:19;7.33;;;2.77;;
3949;SDS011;53057;50.988;6.314;2023-05-07T12:15:50;6.10;;;2.60;;
3949;SDS011;53057;50.988;6.314;2023-05-07T12:18:17;3.73;;;2.03;;
3949;SDS011;53057;50.988;6.314;2023-05-07T12:20:44;4.33;;;2.37;;
3949;SDS011;53057;50.988;6.314;2023-05-07T12:23:11;3.67;;;2.17;;
3949;SDS011;53057;50.988;6.314;2023-05-07T12:25:38;4.07;;;2.30;;
3949;SDS011;53057;50.988;6.314;2023-05-07T12:28:05;4.53;;;2.03;;
3949;SDS011;53057;50.988;6.314;2023-05-07T12:30:36;3.83;;;2.80;;
3949;SDS011;53057;50.988;6.314;2023-05-07T12:33:03;4.40;;;2.83;;
3949;SDS011;53057;50.988;6.314;2023-05-07T12:35:39;3.20;;;1.90;;
3949;SDS011;53057;50.988;6.314;2023-05-07T12:38:09;7.77;;;2.00;;
3949;SDS011;53057;50.988;6.314;2023-05-07T12:40:38;4.77;;;2.60;;
3949;SDS011;53057;50.988;6.314;2023-05-07T12:43:05;2.93;;;2.60;;
3949;SDS011;53057;50.988;6.314;2023-05-07T12:45:35;2.50;;;2.30;;
3949;SDS011;53057;50.988;6.314;2023-05-07T12:48:02;9.53;;;2.60;;
3949;SDS011;53057;50.988;6.314;2023-05-07T12:50:32;4.87;;;2.57;;
3949;SDS011;53057;50.988;6.314;2023-05-07T12:52:59;2.40;;;2.20;;
3949;SDS011;53057;50.988;6.314;2023-05-07T12:55:26;4.13;;;1.77;;
3949;SDS011;53057;50.988;6.314;2023-05-07T12:58:00;1.83;;;1.73;;
3949;SDS011;53057;50.988;6.314;2023-05-07T13:00:37;2.30;;;1.93;;
3949;SDS011;53057;50.988;6.314;2023-05-07T13:03:04;1.90;;;1.67;;
3949;SDS011;53057;50.988;6.314;2023-05-07T13:05:31;2.63;;;2.43;;
3949;SDS011;53057;50.988;6.314;2023-05-07T13:07:58;2.63;;;2.30;;
3949;SDS011;53057;50.988;6.314;2023-05-07T13:10:26;3.63;;;3.30;;
3949;SDS011;53057;50.988;6.314;2023-05-07T13:12:53;5.43;;;3.77;;
3949;SDS011;53057;50.988;6.314;2023-05-07T13:15:19;4.30;;;3.90;;
3949;SDS011;53057;50.988;6.314;2023-05-07T13:17:46;7.00;;;5.33;;
3949;SDS011;53057;50.988;6.314;2023-05-07T13:20:13;8.70;;;4.40;;
3949;SDS011;53057;50.988;6.314;2023-05-07T13:22:40;5.53;;;3.43;;
3949;SDS011;53057;50.988;6.314;2023-05-07T13:25:07;10.73;;;2.53;;
3949;SDS011;53057;50.988;6.314;2023-05-07T13:27:34;5.37;;;3.10;;
3949;SDS011;53057;50.988;6.314;2023-05-07T13:30:04;5.63;;;3.90;;
3949;SDS011;53057;50.988;6.314;2023-05-07T13:32:31;2.67;;;2.00;;
3949;SDS011;53057;50.988;6.314;2023-05-07T13:34:58;6.70;;;2.40;;
3949;SDS011;53057;50.988;6.314;2023-05-07T13:37:24;2.13;;;1.90;;
3949;SDS011;53057;50.988;6.314;2023-05-07T13:39:51;2.40;;;1.57;;
3949;SDS011;53057;50.988;6.314;2023-05-07T13:42:17;2.33;;;1.47;;
3949;SDS011;53057;50.988;6.314;2023-05-07T13:44:44;1.30;;;1.10;;
3949;SDS011;53057;50.988;6.314;2023-05-07T13:47:11;2.10;;;1.53;;
3949;SDS011;53057;50.988;6.314;2023-05-07T13:49:38;3.20;;;2.13;;
3949;SDS011;53057;50.988;6.314;2023-05-07T13:52:05;3.63;;;1.97;;
3949;SDS011;53057;50.988;6.314;2023-05-07T13:54:32;2.23;;;2.03;;
3949;SDS011;53057;50.988;6.314;2023-05-07T13:56:58;2.70;;;2.00;;
3949;SDS011;53057;50.988;6.314;2023-05-07T13:59:25;2.47;;;2.27;;
3949;SDS011;53057;50.988;6.314;2023-05-07T14:01:51;5.37;;;2.23;;
3949;SDS011;53057;50.988;6.314;2023-05-07T14:04:18;2.50;;;1.40;;
3949;SDS011;53057;50.988;6.314;2023-05-07T14:06:44;2.23;;;1.10;;
3949;SDS011;53057;50.988;6.314;2023-05-07T14:09:11;1.23;;;1.13;;
3949;SDS011;53057;50.988;6.314;2023-05-07T14:11:39;2.60;;;1.33;;
3949;SDS011;53057;50.988;6.314;2023-05-07T14:14:06;1.47;;;1.37;;
3949;SDS011;53057;50.988;6.314;2023-05-07T14:16:33;2.27;;;1.47;;
3949;SDS011;53057;50.988;6.314;2023-05-07T14:18:59;3.50;;;1.17;;
3949;SDS011;53057;50.988;6.314;2023-05-07T14:21:26;3.83;;;1.20;;
3949;SDS011;53057;50.988;6.314;2023-05-07T14:23:53;1.10;;;1.00;;
3949;SDS011;53057;50.988;6.314;2023-05-07T14:26:20;1.10;;;1.00;;
3949;SDS011;53057;50.988;6.314;2023-05-07T14:28:47;1.20;;;1.10;;
3949;SDS011;53057;50.988;6.314;2023-05-07T14:31:14;2.13;;;1.30;;
3949;SDS011;53057;50.988;6.314;2023-05-07T14:33:41;1.43;;;1.20;;
3949;SDS011;53057;50.988;6.314;2023-05-07T14:36:07;1.33;;;1.23;;
3949;SDS011;53057;50.988;6.314;2023-05-07T14:38:34;4.23;;;1.20;;
3949;SDS011;53057;50.988;6.314;2023-05-07T14:41:01;1.50;;;1.07;;
3949;SDS011;53057;50.988;6.314;2023-05-07T14:43:27;2.03;;;1.20;;
3949;SDS011;53057;50.988;6.314;2023-05-07T14:45:55;1.53;;;1.43;;
3949;SDS011;53057;50.988;6.314;2023-05-07T14:48:22;1.93;;;1.20;;
3949;SDS011;53057;50.988;6.314;2023-05-07T14:50:48;2.70;;;1.43;;
3949;SDS011;53057;50.988;6.314;2023-05-07T14:53:15;2.83;;;1.30;;
3949;SDS011;53057;50.988;6.314;2023-05-07T14:55:42;2.43;;;1.77;;
3949;SDS011;53057;50.988;6.314;2023-05-07T14:58:09;3.03;;;2.20;;
3949;SDS011;53057;50.988;6.314;2023-05-07T15:00:36;7.50;;;1.70;;
3949;SDS011;53057;50.988;6.314;2023-05-07T15:03:07;2.73;;;1.63;;
3949;SDS011;53057;50.988;6.314;2023-05-07T15:05:36;3.67;;;1.67;;